Time;durP1;ratioP1;P1;durP2;ratioP2;P2;SDS_P1;SDS_P2;PMS_P1;PMS_P2;Temp;Humidity;BMP_temperature;BMP_pressure;BME280_temperature;BME280_humidity;BME280_pressure;Samples;Min_cycle;Max_cycle;Signal;HPM_P1;HPM_P2
2022/08/21 00:01:59;;;;;;;;;;;;;;;22.51;69.45;99784.16;5375844;32;34326;-74
2022/08/21 00:05:02;;;;;;;;;;;;;;;22.52;69.94;99784.00;5380063;32;35066;-81
2022/08/21 00:08:04;;;;;;;;;;;;;;;22.91;67.60;99773.84;5379935;32;35012;-81
2022/08/21 00:11:06;;;;;;;;;;;;;;;23.28;65.72;99769.31;5360847;32;34101;-64
2022/08/21 00:14:08;;;;;;;;;;;;;;;22.04;70.68;99776.22;5360285;32;34210;-64
2022/08/21 00:17:10;;;;;;;;;;;;;;;22.07;71.15;99766.03;5365354;32;35653;-81
2022/08/21 00:20:13;;;;;;;;;;;;;;;22.02;72.00;99754.94;5369339;32;35193;-64
2022/08/21 00:23:15;;;;;;;;;;;;;;;21.80;73.63;99763.34;5348342;32;46700;-81
2022/08/21 00:26:17;;;;;;;;;;;;;;;21.79;73.37;99764.34;5393030;32;34507;-64
2022/08/21 00:29:19;;;;;;;;;;;;;;;22.25;71.73;99760.78;5368972;32;34819;-64
2022/08/21 00:32:21;;;;;;;;;;;;;;;21.90;72.78;99761.50;5376413;32;35641;-82
2022/08/21 00:35:25;;;;;;;;;;;;;;;21.77;73.92;99761.00;5394641;32;34293;-81
2022/08/21 00:38:27;;;;;;;;;;;;;;;21.69;73.55;99755.50;5380914;32;34889;-65
2022/08/21 00:41:29;;;;;;;;;;;;;;;21.89;72.87;99767.81;5394179;32;34133;-65
2022/08/21 00:44:39;;;;;;;;;;;;;;;22.29;71.13;99762.16;5367808;32;34036;-65
2022/08/21 00:47:41;;;;;;;;;;;;;;;21.79;72.82;99762.50;5390857;32;34608;-64
2022/08/21 00:50:44;;;;;;;;;;;;;;;21.75;73.08;99768.28;5383994;32;35588;-80
2022/08/21 00:53:46;;;;;;;;;;;;;;;22.16;70.82;99773.22;5367032;32;46117;-79
2022/08/21 00:56:55;;;;;;;;;;;;;;;21.57;74.50;99769.03;5374214;32;35448;-64
2022/08/21 01:00:02;;;;;;;;;;;;;;;21.57;74.58;99765.53;5366736;32;35660;-64
2022/08/21 01:03:07;;;;;;;;;;;;;;;21.14;76.26;99766.03;5359815;32;926533;-79
2022/08/21 01:06:09;;;;;;;;;;;;;;;21.51;74.82;99766.97;5377193;32;35301;-64
2022/08/21 01:09:12;;;;;;;;;;;;;;;21.75;73.67;99765.63;5374823;32;35065;-64
2022/08/21 01:12:13;;;;;;;;;;;;;;;21.52;74.25;99771.34;5361854;32;35147;-81
2022/08/21 01:15:15;;;;;;;;;;;;;;;21.75;73.41;99761.12;5355642;32;46246;-62
2022/08/21 01:18:18;;;;;;;;;;;;;;;21.26;74.88;99757.72;5380959;32;35541;-64
2022/08/21 01:21:24;;;;;;;;;;;;;;;21.12;76.48;99766.16;5351628;32;34693;-73
2022/08/21 01:24:31;;;;;;;;;;;;;;;21.51;75.11;99755.41;5386881;32;35287;-73
2022/08/21 01:27:33;;;;;;;;;;;;;;;21.37;75.24;99749.53;5379902;32;34345;-65
2022/08/21 01:30:36;;;;;;;;;;;;;;;21.35;75.60;99756.03;5389824;32;34005;-80
2022/08/21 01:33:37;;;;;;;;;;;;;;;21.52;74.85;99749.09;5398393;32;34311;-80
2022/08/21 01:36:39;;;;;;;;;;;;;;;21.85;72.43;99753.91;5365048;32;36027;-82
2022/08/21 01:39:42;;;;;;;;;;;;;;;21.71;73.47;99756.22;5394527;32;35289;-63
2022/08/21 01:42:44;;;;;;;;;;;;;;;21.57;74.73;99757.50;5377649;32;44896;-64
2022/08/21 01:45:46;;;;;;;;;;;;;;;20.99;77.49;99755.75;5392999;32;34986;-64
2022/08/21 01:48:48;;;;;;;;;;;;;;;21.66;73.46;99759.31;5381008;32;35083;-82
2022/08/21 01:51:50;;;;;;;;;;;;;;;20.70;78.27;99745.09;5377881;32;34901;-64
2022/08/21 01:54:52;;;;;;;;;;;;;;;20.37;80.28;99756.13;5395939;32;34953;-73
2022/08/21 01:57:56;;;;;;;;;;;;;;;21.09;76.22;99751.25;5359573;32;34347;-81
2022/08/21 02:00:58;;;;;;;;;;;;;;;21.10;76.91;99752.94;5393956;32;35066;-65
2022/08/21 02:04:00;;;;;;;;;;;;;;;20.81;77.52;99752.13;5353451;32;34316;-65
2022/08/21 02:07:03;;;;;;;;;;;;;;;21.16;76.63;99748.87;5390231;32;34073;-65
2022/08/21 02:10:10;;;;;;;;;;;;;;;21.24;75.18;99750.81;5372901;32;33710;-64
2022/08/21 02:13:11;;;;;;;;;;;;;;;20.57;78.72;99759.72;5356922;32;34752;-64
2022/08/21 02:16:14;;;;;;;;;;;;;;;21.29;75.95;99753.94;5388034;32;46268;-79
2022/08/21 02:19:20;;;;;;;;;;;;;;;21.56;74.33;99756.66;5362895;32;34918;-80
2022/08/21 02:22:22;;;;;;;;;;;;;;;20.77;77.34;99750.72;5380748;32;35441;-64
2022/08/21 02:25:24;;;;;;;;;;;;;;;21.50;75.11;99748.38;5363954;32;35021;-63
2022/08/21 02:28:26;;;;;;;;;;;;;;;20.28;80.55;99752.44;5356692;32;35014;-72
2022/08/21 02:31:28;;;;;;;;;;;;;;;21.11;77.03;99737.75;5357975;32;34912;-72
2022/08/21 02:34:30;;;;;;;;;;;;;;;21.42;75.09;99749.13;5361996;32;34224;-79
2022/08/21 02:37:32;;;;;;;;;;;;;;;21.34;75.37;99744.50;5379021;32;35367;-80
2022/08/21 02:40:35;;;;;;;;;;;;;;;21.76;73.00;99745.91;5350097;32;34896;-64
2022/08/21 02:43:37;;;;;;;;;;;;;;;20.94;76.46;99746.50;5365242;32;34832;-64
2022/08/21 02:46:39;;;;;;;;;;;;;;;21.24;75.82;99732.09;5378831;32;34624;-71
2022/08/21 02:49:41;;;;;;;;;;;;;;;20.72;78.42;99723.59;5385396;32;34206;-63
2022/08/21 02:52:45;;;;;;;;;;;;;;;21.10;75.31;99728.91;5375092;32;33164;-81
2022/08/21 02:55:52;;;;;;;;;;;;;;;20.80;77.20;99729.06;5367601;32;45455;-72
2022/08/21 02:58:54;;;;;;;;;;;;;;;21.10;76.64;99734.25;5387477;32;35843;-64
2022/08/21 03:01:56;;;;;;;;;;;;;;;21.76;73.21;99736.03;5376180;32;34709;-64
2022/08/21 03:04:58;;;;;;;;;;;;;;;20.64;78.09;99732.31;5386506;32;34642;-79
2022/08/21 03:08:01;;;;;;;;;;;;;;;21.17;75.82;99733.66;5378843;32;35381;-64
2022/08/21 03:11:03;;;;;;;;;;;;;;;21.10;77.23;99738.75;5352643;32;35000;-64
2022/08/21 03:14:06;;;;;;;;;;;;;;;20.74;76.87;99740.34;5372876;32;35410;-64
2022/08/21 03:17:08;;;;;;;;;;;;;;;20.81;78.18;99733.44;5365031;32;34944;-64
2022/08/21 03:20:10;;;;;;;;;;;;;;;21.28;75.36;99741.53;5367705;32;34974;-80
2022/08/21 03:23:13;;;;;;;;;;;;;;;21.03;76.51;99738.47;5362678;32;34930;-63
2022/08/21 03:26:19;;;;;;;;;;;;;;;21.32;75.46;99742.97;5364706;32;44283;-63
2022/08/21 03:29:22;;;;;;;;;;;;;;;21.30;75.50;99739.59;5361975;32;34777;-72
2022/08/21 03:32:24;;;;;;;;;;;;;;;20.80;77.46;99735.28;5361792;32;35204;-67
2022/08/21 03:35:26;;;;;;;;;;;;;;;21.19;76.12;99737.03;5378224;32;35198;-64
2022/08/21 03:38:29;;;;;;;;;;;;;;;21.31;75.15;99749.28;5359985;32;34666;-80
2022/08/21 03:41:30;;;;;;;;;;;;;;;21.30;74.92;99744.94;5379723;32;34861;-63
2022/08/21 03:44:33;;;;;;;;;;;;;;;21.27;75.56;99742.53;5349086;32;34341;-65
2022/08/21 03:47:35;;;;;;;;;;;;;;;20.40;79.14;99745.16;5363066;32;35089;-63
2022/08/21 03:50:39;;;;;;;;;;;;;;;20.35;80.92;99745.59;5364902;32;35053;-80
2022/08/21 03:53:42;;;;;;;;;;;;;;;21.36;74.99;99742.50;5377737;32;35190;-64
2022/08/21 03:56:44;;;;;;;;;;;;;;;21.45;74.41;99740.81;5376091;32;35224;-64
2022/08/21 03:59:46;;;;;;;;;;;;;;;21.49;74.65;99744.88;5363957;32;35327;-63
2022/08/21 04:02:48;;;;;;;;;;;;;;;21.31;74.96;99744.78;5393746;32;35558;-63
2022/08/21 04:05:50;;;;;;;;;;;;;;;21.22;76.03;99742.94;5371598;32;35379;-63
2022/08/21 04:08:52;;;;;;;;;;;;;;;21.45;74.16;99748.84;5390319;32;35014;-81
2022/08/21 04:11:54;;;;;;;;;;;;;;;20.97;77.23;99752.41;5363742;32;34866;-65
2022/08/21 04:14:56;;;;;;;;;;;;;;;21.23;75.85;99757.16;5363998;32;34666;-73
2022/08/21 04:17:58;;;;;;;;;;;;;;;20.86;77.25;99768.56;5381498;32;34226;-64
2022/08/21 04:21:00;;;;;;;;;;;;;;;20.89;76.81;99765.63;5366038;32;35360;-63
2022/08/21 04:24:02;;;;;;;;;;;;;;;21.07;77.19;99766.59;5365674;32;34884;-72
2022/08/21 04:27:04;;;;;;;;;;;;;;;20.88;77.57;99763.94;5365071;32;34149;-64
2022/08/21 04:30:07;;;;;;;;;;;;;;;21.66;73.50;99774.53;5360923;32;35194;-64
2022/08/21 04:33:08;;;;;;;;;;;;;;;21.25;76.05;99777.41;5362797;32;35772;-80
2022/08/21 04:36:11;;;;;;;;;;;;;;;21.31;75.33;99770.66;5378575;32;34691;-80
2022/08/21 04:39:12;;;;;;;;;;;;;;;21.23;75.60;99765.16;5397372;32;35323;-63
2022/08/21 04:42:14;;;;;;;;;;;;;;;21.00;77.10;99776.16;5380135;32;44882;-80
2022/08/21 04:45:36;;;;;;;;;;;;;;;21.16;75.72;99766.72;5395476;32;34859;-80
2022/08/21 04:48:38;;;;;;;;;;;;;;;22.20;71.75;99768.41;5381074;32;35174;-73
2022/08/21 04:51:40;;;;;;;;;;;;;;;22.24;70.44;99772.47;5383982;32;34556;-63
2022/08/21 04:54:43;;;;;;;;;;;;;;;21.56;73.98;99778.06;5390774;32;34836;-80
2022/08/21 04:57:44;;;;;;;;;;;;;;;21.13;76.36;99778.56;5345068;32;45972;-63
2022/08/21 05:00:50;;;;;;;;;;;;;;;21.48;75.46;99777.94;5392642;32;35861;-80
2022/08/21 05:03:53;;;;;;;;;;;;;;;21.25;75.08;99785.44;5357977;32;35840;-81
2022/08/21 05:06:56;;;;;;;;;;;;;;;21.47;74.45;99791.47;5392062;32;34500;-64
2022/08/21 05:09:59;;;;;;;;;;;;;;;21.41;75.26;99784.88;5356770;32;36929;-79
2022/08/21 05:13:00;;;;;;;;;;;;;;;21.05;76.42;99789.09;5362356;32;34343;-64
2022/08/21 05:16:03;;;;;;;;;;;;;;;20.77;77.68;99793.44;5382606;32;36077;-64
2022/08/21 05:19:05;;;;;;;;;;;;;;;20.59;78.67;99795.09;5363638;32;34683;-79
2022/08/21 05:22:08;;;;;;;;;;;;;;;20.78;78.93;99795.97;5382005;32;34656;-80
2022/08/21 05:25:10;;;;;;;;;;;;;;;21.59;73.56;99787.63;5361726;32;37053;-63
2022/08/21 05:28:12;;;;;;;;;;;;;;;21.31;74.96;99787.53;5378506;32;35352;-81
2022/08/21 05:31:14;;;;;;;;;;;;;;;21.33;73.84;99792.75;5364118;32;44662;-65
2022/08/21 05:34:20;;;;;;;;;;;;;;;21.57;73.09;99785.09;5369362;32;34311;-81
2022/08/21 05:37:22;;;;;;;;;;;;;;;21.15;74.27;99795.28;5388697;32;34938;-64
2022/08/21 05:40:24;;;;;;;;;;;;;;;21.07;74.59;99784.47;5371057;32;35211;-73
2022/08/21 05:43:26;;;;;;;;;;;;;;;21.73;72.59;99797.03;5396389;32;35286;-82
2022/08/21 05:46:28;;;;;;;;;;;;;;;21.49;73.25;99784.97;5377999;32;34053;-65
2022/08/21 05:49:30;;;;;;;;;;;;;;;20.94;75.23;99789.25;5380205;32;35267;-72
2022/08/21 05:52:32;;;;;;;;;;;;;;;21.20;74.79;99786.84;5381156;32;35020;-65
2022/08/21 05:55:35;;;;;;;;;;;;;;;20.92;76.04;99786.69;5369300;32;34266;-81
2022/08/21 05:58:37;;;;;;;;;;;;;;;22.19;70.26;99792.66;5370238;32;34326;-64
2022/08/21 06:01:39;;;;;;;;;;;;;;;21.75;71.41;99787.00;5376804;32;34208;-63
2022/08/21 06:04:41;;;;;;;;;;;;;;;21.01;75.46;99788.53;5380878;32;35352;-80
2022/08/21 06:07:43;;;;;;;;;;;;;;;20.62;77.07;99790.34;5378603;32;35342;-81
2022/08/21 06:10:46;;;;;;;;;;;;;;;21.46;73.73;99793.31;5377691;32;45080;-64
2022/08/21 06:13:48;;;;;;;;;;;;;;;21.09;74.34;99794.00;5345677;32;35021;-81
2022/08/21 06:16:50;;;;;;;;;;;;;;;21.18;74.40;99791.47;5367533;32;34806;-79
2022/08/21 06:19:52;;;;;;;;;;;;;;;20.72;76.09;99796.53;5379556;32;35018;-81
2022/08/21 06:22:54;;;;;;;;;;;;;;;21.24;75.07;99793.56;5362235;32;35272;-80
2022/08/21 06:25:56;;;;;;;;;;;;;;;21.14;74.36;99798.94;5379330;32;35288;-83
2022/08/21 06:28:58;;;;;;;;;;;;;;;21.88;71.84;99808.94;5361303;32;34635;-64
2022/08/21 06:32:00;;;;;;;;;;;;;;;21.57;72.74;99801.13;5377599;32;35302;-63
2022/08/21 06:35:02;;;;;;;;;;;;;;;21.73;72.45;99807.72;5371098;32;34403;-80
2022/08/21 06:38:04;;;;;;;;;;;;;;;21.29;73.45;99808.22;5380781;32;34419;-65
2022/08/21 06:41:07;;;;;;;;;;;;;;;21.49;72.44;99802.84;5393836;32;34280;-65
2022/08/21 06:44:10;;;;;;;;;;;;;;;20.65;76.17;99821.25;5366826;32;36146;-80
2022/08/21 06:47:12;;;;;;;;;;;;;;;20.72;76.07;99807.22;5393983;32;35453;-65
2022/08/21 06:50:14;;;;;;;;;;;;;;;21.92;71.55;99807.66;5375767;32;44403;-64
2022/08/21 06:53:18;;;;;;;;;;;;;;;22.57;68.15;99816.53;5395156;32;34944;-81
2022/08/21 06:56:20;;;;;;;;;;;;;;;22.06;69.91;99809.84;5365838;32;35211;-81
2022/08/21 06:59:22;;;;;;;;;;;;;;;22.67;67.33;99811.97;5373269;32;34953;-74
2022/08/21 07:02:23;;;;;;;;;;;;;;;23.26;65.29;99806.16;5393903;32;35122;-81
2022/08/21 07:05:26;;;;;;;;;;;;;;;22.53;67.08;99808.94;5371645;32;34686;-80
2022/08/21 07:08:28;;;;;;;;;;;;;;;22.52;68.17;99804.56;5390765;32;34308;-81
2022/08/21 07:11:30;;;;;;;;;;;;;;;22.28;68.77;99811.31;5375846;32;33933;-81
2022/08/21 07:14:40;;;;;;;;;;;;;;;22.13;69.10;99802.94;5376416;32;37328;-80
2022/08/21 07:17:42;;;;;;;;;;;;;;;21.55;72.46;99805.78;5375038;32;35382;-63
2022/08/21 07:20:44;;;;;;;;;;;;;;;22.62;68.14;99805.38;5364407;32;44588;-82
2022/08/21 07:23:47;;;;;;;;;;;;;;;22.57;67.28;99808.47;5351549;32;35654;-80
2022/08/21 07:26:49;;;;;;;;;;;;;;;22.01;69.79;99803.25;5362577;32;35263;-82
2022/08/21 07:29:50;;;;;;;;;;;;;;;22.36;68.35;99811.44;5379433;32;34805;-82
2022/08/21 07:32:52;;;;;;;;;;;;;;;22.25;68.50;99816.13;5360917;32;35201;-64
2022/08/21 07:35:54;;;;;;;;;;;;;;;22.92;66.63;99812.22;5380754;32;35182;-65
2022/08/21 07:38:56;;;;;;;;;;;;;;;22.80;67.04;99811.59;5387900;32;35646;-64
2022/08/21 07:41:58;;;;;;;;;;;;;;;22.31;69.02;99807.50;5377368;32;34312;-64
2022/08/21 07:45:00;;;;;;;;;;;;;;;22.99;66.66;99802.56;5393262;32;34167;-80
2022/08/21 07:48:02;;;;;;;;;;;;;;;22.44;67.33;99808.00;5364907;32;34604;-73
2022/08/21 07:51:05;;;;;;;;;;;;;;;22.82;66.76;99800.72;5391756;32;35128;-80
2022/08/21 07:54:08;;;;;;;;;;;;;;;23.65;63.79;99790.53;5377344;32;34845;-64
2022/08/21 07:57:17;;;;;;;;;;;;;;;23.65;63.75;99790.53;5358297;32;44633;-64
2022/08/21 08:00:23;;;;;;;;;;;;;;;24.98;58.41;99782.63;5391446;32;35772;-64
2022/08/21 08:03:25;;;;;;;;;;;;;;;25.07;56.94;99787.03;5355371;32;35837;-64
2022/08/21 08:06:30;;;;;;;;;;;;;;;25.14;57.80;99784.50;5386993;32;36428;-66
2022/08/21 08:09:32;;;;;;;;;;;;;;;25.53;56.17;99781.13;5368652;32;34566;-64
2022/08/21 08:12:34;;;;;;;;;;;;;;;25.67;55.09;99778.56;5374159;32;34735;-64
2022/08/21 08:15:36;;;;;;;;;;;;;;;26.40;53.35;99771.25;5362689;32;34826;-81
2022/08/21 08:18:38;;;;;;;;;;;;;;;27.34;50.54;99763.88;5346620;32;35142;-64
2022/08/21 08:21:40;;;;;;;;;;;;;;;26.41;52.53;99760.34;5382161;32;34235;-79
2022/08/21 08:24:42;;;;;;;;;;;;;;;25.88;53.70;99769.09;5366000;32;34733;-64
2022/08/21 08:27:44;;;;;;;;;;;;;;;25.39;56.48;99759.28;5392305;32;44566;-65
2022/08/21 08:30:46;;;;;;;;;;;;;;;25.28;56.72;99756.09;5375074;32;35239;-81
2022/08/21 08:33:47;;;;;;;;;;;;;;;26.45;52.86;99755.41;5392149;32;35059;-64
2022/08/21 08:36:50;;;;;;;;;;;;;;;26.55;52.70;99760.59;5378019;32;34704;-80
2022/08/21 08:39:52;;;;;;;;;;;;;;;25.73;55.52;99750.16;5378843;32;35343;-81
2022/08/21 08:42:54;;;;;;;;;;;;;;;25.95;55.08;99753.94;5397042;32;34952;-64
2022/08/21 08:45:56;;;;;;;;;;;;;;;26.36;52.92;99761.84;5377189;32;35333;-65
2022/08/21 08:49:02;;;;;;;;;;;;;;;25.55;56.15;99760.25;5381543;32;34924;-65
2022/08/21 08:52:11;;;;;;;;;;;;;;;25.22;57.10;99760.31;5364797;32;35511;-65
2022/08/21 08:55:18;;;;;;;;;;;;;;;27.54;50.50;99751.50;5371945;32;35420;-65
2022/08/21 08:58:37;;;;;;;;;;;;;;;26.49;52.62;99756.75;5371817;32;44987;-65
2022/08/21 09:01:39;;;;;;;;;;;;;;;26.45;53.13;99758.94;5372154;32;34313;-65
2022/08/21 09:04:41;;;;;;;;;;;;;;;26.20;53.65;99758.19;5385112;32;36016;-64
2022/08/21 09:07:55;;;;;;;;;;;;;;;26.48;52.99;99757.75;5379309;32;35788;-80
2022/08/21 09:11:04;;;;;;;;;;;;;;;26.67;51.55;99768.09;5376710;32;35095;-72
2022/08/21 09:14:25;;;;;;;;;;;;;;;26.30;53.39;99762.56;5346073;32;34865;-65
2022/08/21 09:17:46;;;;;;;;;;;;;;;28.23;48.87;99751.25;5365435;32;34655;-65
2022/08/21 09:20:57;;;;;;;;;;;;;;;27.10;51.27;99746.88;5378980;32;45525;-65
2022/08/21 09:24:02;;;;;;;;;;;;;;;27.82;49.33;99748.19;5356196;32;34382;-75
2022/08/21 09:27:08;;;;;;;;;;;;;;;29.52;44.90;99747.56;5390906;32;34160;-66
2022/08/21 09:30:10;;;;;;;;;;;;;;;29.10;45.95;99749.28;5372615;32;37075;-83
2022/08/21 09:33:12;;;;;;;;;;;;;;;28.46;47.39;99746.53;5367249;32;34508;-66
2022/08/21 09:36:24;;;;;;;;;;;;;;;27.19;49.96;99756.59;5379505;32;44855;-65
2022/08/21 09:39:29;;;;;;;;;;;;;;;28.25;47.47;99757.28;5379439;32;35467;-66
2022/08/21 09:42:31;;;;;;;;;;;;;;;26.79;51.61;99762.25;5379064;32;35823;-66
2022/08/21 09:45:34;;;;;;;;;;;;;;;28.35;47.43;99751.63;5349141;32;35256;-66
2022/08/21 09:48:40;;;;;;;;;;;;;;;27.77;49.79;99751.47;5366864;32;35399;-64
2022/08/21 09:51:49;;;;;;;;;;;;;;;28.50;48.04;99741.59;5394020;32;35508;-64
2022/08/21 09:54:51;;;;;;;;;;;;;;;28.14;48.70;99733.44;5365463;32;44881;-83
2022/08/21 09:57:53;;;;;;;;;;;;;;;27.95;49.54;99741.13;5375877;32;34239;-80
2022/08/21 10:00:59;;;;;;;;;;;;;;;28.21;48.06;99753.28;5364923;32;34863;-81
2022/08/21 10:04:07;;;;;;;;;;;;;;;27.78;48.65;99751.28;5373183;32;34861;-64
2022/08/21 10:07:13;;;;;;;;;;;;;;;29.73;44.79;99740.38;5384362;32;34839;-81
2022/08/21 10:10:20;;;;;;;;;;;;;;;29.24;45.40;99738.56;5374256;32;44527;-80
2022/08/21 10:13:36;;;;;;;;;;;;;;;28.97;46.00;99738.34;5393079;32;34691;-65
2022/08/21 10:16:41;;;;;;;;;;;;;;;28.48;46.86;99739.09;5351451;32;34677;-64
2022/08/21 10:19:43;;;;;;;;;;;;;;;29.12;45.51;99743.69;5378182;32;35741;-65
2022/08/21 10:22:51;;;;;;;;;;;;;;;28.80;46.59;99742.34;5362837;32;44965;-80
2022/08/21 10:25:56;;;;;;;;;;;;;;;29.63;44.51;99744.31;5363365;32;34943;-80
2022/08/21 10:29:15;;;;;;;;;;;;;;;29.29;45.53;99746.94;5376864;32;48534;-65
2022/08/21 10:32:36;;;;;;;;;;;;;;;27.50;49.42;99744.78;5378018;32;34962;-79
2022/08/21 10:35:44;;;;;;;;;;;;;;;28.60;46.95;99748.38;5379007;32;34380;-80
2022/08/21 10:39:02;;;;;;;;;;;;;;;30.42;43.37;99743.00;5364816;32;44904;-64
2022/08/21 10:42:27;;;;;;;;;;;;;;;28.36;47.66;99754.12;5349401;32;37886;-65
2022/08/21 10:45:38;;;;;;;;;;;;;;;30.10;43.43;99739.97;5365858;32;34628;-84
2022/08/21 10:48:47;;;;;;;;;;;;;;;29.14;45.67;99745.16;5380599;32;34340;-80
2022/08/21 10:51:54;;;;;;;;;;;;;;;27.80;48.87;99740.28;5392373;32;46765;-82
2022/08/21 10:55:08;;;;;;;;;;;;;;;27.85;49.32;99737.88;5369037;32;36035;-65
2022/08/21 10:58:11;;;;;;;;;;;;;;;27.02;51.25;99736.13;5341476;32;36756;-83
2022/08/21 11:01:39;;;;;;;;;;;;;;;27.21;50.62;99737.50;5379269;32;35251;-80
2022/08/21 11:04:55;;;;;;;;;;;;;;;27.43;50.50;99733.91;5360143;32;34871;-80
2022/08/21 11:08:01;;;;;;;;;;;;;;;26.30;54.08;99746.38;5371517;32;34641;-65
2022/08/21 11:11:15;;;;;;;;;;;;;;;26.22;53.95;99741.06;5349628;32;35202;-65
2022/08/21 11:14:30;;;;;;;;;;;;;;;27.25;51.57;99733.44;5358006;32;43928;-63
2022/08/21 11:17:34;;;;;;;;;;;;;;;25.95;55.86;99736.94;5364850;32;34045;-80
2022/08/21 11:20:38;;;;;;;;;;;;;;;26.42;54.23;99734.22;5362356;32;34620;-81
2022/08/21 11:23:40;;;;;;;;;;;;;;;26.91;52.00;99734.69;5359505;32;34679;-63
2022/08/21 11:26:45;;;;;;;;;;;;;;;27.16;51.68;99726.44;5382514;32;34938;-80
2022/08/21 11:29:52;;;;;;;;;;;;;;;27.07;51.78;99727.53;5378109;32;45275;-63
2022/08/21 11:33:03;;;;;;;;;;;;;;;25.80;55.90;99734.97;5364379;32;34526;-65
2022/08/21 11:36:14;;;;;;;;;;;;;;;26.75;53.34;99728.59;5376128;32;34869;-84
2022/08/21 11:39:20;;;;;;;;;;;;;;;25.88;56.06;99729.56;5393015;32;44446;-81
2022/08/21 11:42:22;;;;;;;;;;;;;;;25.65;56.07;99718.69;5360894;32;35133;-81
2022/08/21 11:45:35;;;;;;;;;;;;;;;26.09;55.54;99729.00;5363065;32;35845;-64
2022/08/21 11:48:40;;;;;;;;;;;;;;;26.65;53.59;99716.19;5375818;32;34178;-81
2022/08/21 11:51:44;;;;;;;;;;;;;;;25.92;55.27;99719.31;5363687;32;35523;-82
2022/08/21 11:54:56;;;;;;;;;;;;;;;26.32;54.08;99726.31;5365085;32;44676;-80
2022/08/21 11:58:09;;;;;;;;;;;;;;;25.96;55.46;99714.41;5338076;32;36702;-65
2022/08/21 12:01:15;;;;;;;;;;;;;;;26.02;55.59;99711.00;5349906;32;36368;-64
2022/08/21 12:04:19;;;;;;;;;;;;;;;26.63;53.77;99706.63;5384420;32;44754;-66
2022/08/21 12:07:32;;;;;;;;;;;;;;;25.97;55.45;99708.84;5344804;32;34684;-64
2022/08/21 12:10:39;;;;;;;;;;;;;;;25.28;57.83;99710.38;5378458;32;34350;-64
2022/08/21 12:14:00;;;;;;;;;;;;;;;25.91;55.78;99705.00;5361849;32;35029;-64
2022/08/21 12:17:05;;;;;;;;;;;;;;;26.46;55.07;99703.19;5383295;32;35495;-70
2022/08/21 12:20:24;;;;;;;;;;;;;;;26.54;55.24;99705.84;5385832;32;35127;-83
2022/08/21 12:23:28;;;;;;;;;;;;;;;27.21;55.03;99697.06;5359852;32;35597;-65
2022/08/21 12:26:49;;;;;;;;;;;;;;;25.96;57.67;99701.78;5396399;32;35101;-82
2022/08/21 12:30:06;;;;;;;;;;;;;;;26.27;56.21;99690.16;5379176;32;44661;-66
2022/08/21 12:33:20;;;;;;;;;;;;;;;25.87;57.27;99703.66;5366508;32;34293;-65
2022/08/21 12:36:55;;;;;;;;;;;;;;;25.28;58.91;99696.94;5395315;32;47067;-65
2022/08/21 12:39:57;;;;;;;;;;;;;;;25.88;57.68;99693.72;5345465;32;34534;-83
2022/08/21 12:43:00;;;;;;;;;;;;;;;26.45;55.56;99690.75;5396807;32;34253;-64
2022/08/21 12:46:04;;;;;;;;;;;;;;;26.58;54.67;99679.38;5366533;32;35615;-65
2022/08/21 12:49:08;;;;;;;;;;;;;;;25.95;56.48;99699.25;5379514;32;34618;-83
2022/08/21 12:52:16;;;;;;;;;;;;;;;26.15;56.93;99692.44;5382254;32;35092;-64
2022/08/21 12:55:25;;;;;;;;;;;;;;;26.03;60.92;99689.31;5371163;32;45267;-65
2022/08/21 12:58:27;;;;;;;;;;;;;;;26.99;56.91;99688.81;5370324;32;36885;-73
2022/08/21 13:01:33;;;;;;;;;;;;;;;26.06;58.61;99688.94;5378930;32;35403;-65
2022/08/21 13:04:40;;;;;;;;;;;;;;;26.22;59.48;99679.94;5355674;32;37327;-84
2022/08/21 13:07:46;;;;;;;;;;;;;;;25.97;59.55;99679.25;5393924;32;35139;-82
2022/08/21 13:10:48;;;;;;;;;;;;;;;25.98;58.64;99675.53;5372068;32;45189;-64
2022/08/21 13:13:51;;;;;;;;;;;;;;;26.03;59.49;99670.47;5376838;32;34858;-64
2022/08/21 13:16:55;;;;;;;;;;;;;;;25.10;62.57;99678.31;5351599;32;35481;-82
2022/08/21 13:19:59;;;;;;;;;;;;;;;25.79;60.21;99673.25;5364278;32;35446;-64
2022/08/21 13:23:21;;;;;;;;;;;;;;;25.26;62.69;99678.28;5349461;32;34461;-64
2022/08/21 13:26:23;;;;;;;;;;;;;;;24.55;69.67;99671.75;5376431;32;47131;-73
2022/08/21 13:29:30;;;;;;;;;;;;;;;25.16;66.94;99664.19;5394341;32;35310;-83
2022/08/21 13:32:33;;;;;;;;;;;;;;;26.23;62.85;99665.44;5379054;32;35480;-84
2022/08/21 13:35:36;;;;;;;;;;;;;;;25.08;68.93;99669.59;5404680;32;34683;-83
2022/08/21 13:38:39;;;;;;;;;;;;;;;24.46;71.68;99670.06;5363776;32;35705;-65
2022/08/21 13:41:42;;;;;;;;;;;;;;;23.75;74.91;99674.03;5385420;32;34904;-64
2022/08/21 13:44:46;;;;;;;;;;;;;;;25.17;67.53;99667.72;5373809;32;44492;-64
2022/08/21 13:47:48;;;;;;;;;;;;;;;23.48;72.56;99671.56;5379004;32;34804;-82
2022/08/21 13:50:50;;;;;;;;;;;;;;;23.75;72.83;99682.09;5380656;32;35523;-73
2022/08/21 13:53:53;;;;;;;;;;;;;;;24.00;72.92;99684.88;5376801;32;34638;-65
2022/08/21 13:56:55;;;;;;;;;;;;;;;23.81;74.02;99682.47;5374393;32;34899;-81
2022/08/21 14:00:13;;;;;;;;;;;;;;;23.74;72.85;99679.59;5362749;32;35147;-64
2022/08/21 14:03:41;;;;;;;;;;;;;;;23.54;73.87;99673.59;5371650;32;46025;-81
2022/08/21 14:06:43;;;;;;;;;;;;;;;23.03;75.58;99685.19;5388583;32;35450;-64
2022/08/21 14:09:46;;;;;;;;;;;;;;;23.29;74.79;99683.34;5368556;32;44700;-64
2022/08/21 14:12:48;;;;;;;;;;;;;;;23.13;74.51;99673.37;5375364;32;35129;-81
2022/08/21 14:15:54;;;;;;;;;;;;;;;23.34;74.27;99680.19;5361546;32;35263;-82
2022/08/21 14:18:59;;;;;;;;;;;;;;;23.36;75.30;99681.72;5367031;32;34901;-83
2022/08/21 14:22:28;;;;;;;;;;;;;;;23.76;72.57;99686.50;5382706;32;35079;-71
2022/08/21 14:25:31;;;;;;;;;;;;;;;24.14;71.01;99675.34;5349703;32;34348;-77
2022/08/21 14:28:35;;;;;;;;;;;;;;;23.28;74.72;99673.63;5381398;32;34137;-65
2022/08/21 14:31:37;;;;;;;;;;;;;;;23.26;75.93;99680.16;5351002;32;34260;-64
2022/08/21 14:34:44;;;;;;;;;;;;;;;23.66;73.39;99672.34;5369373;32;46714;-65
2022/08/21 14:37:50;;;;;;;;;;;;;;;24.07;72.26;99677.00;5357424;32;34644;-65
2022/08/21 14:40:53;;;;;;;;;;;;;;;23.51;75.20;99677.44;5375167;32;35044;-64
2022/08/21 14:43:56;;;;;;;;;;;;;;;24.24;71.77;99678.75;5395418;32;35089;-64
2022/08/21 14:47:10;;;;;;;;;;;;;;;24.85;69.11;99680.97;5364666;32;35193;-66
2022/08/21 14:50:12;;;;;;;;;;;;;;;23.58;72.33;99680.34;5376693;32;34579;-65
2022/08/21 14:53:14;;;;;;;;;;;;;;;23.92;70.87;99676.81;5348541;32;46425;-83
2022/08/21 14:56:16;;;;;;;;;;;;;;;23.39;70.88;99686.78;5352396;32;34275;-63
2022/08/21 14:59:20;;;;;;;;;;;;;;;23.89;69.87;99677.94;5358889;32;34697;-82
2022/08/21 15:02:22;;;;;;;;;;;;;;;23.68;70.81;99675.69;5350784;32;34775;-65
2022/08/21 15:05:24;;;;;;;;;;;;;;;23.06;74.87;99672.34;5388819;32;35046;-84
2022/08/21 15:08:34;;;;;;;;;;;;;;;23.95;71.96;99679.16;5375259;32;34250;-81
2022/08/21 15:11:36;;;;;;;;;;;;;;;24.05;70.17;99666.44;5376268;32;34332;-66
2022/08/21 15:14:43;;;;;;;;;;;;;;;23.56;70.68;99666.22;5355034;32;35442;-64
2022/08/21 15:17:45;;;;;;;;;;;;;;;23.77;71.02;99669.38;5364539;32;44848;-82
2022/08/21 15:20:49;;;;;;;;;;;;;;;23.40;73.90;99663.47;5383602;32;35869;-83
2022/08/21 15:23:51;;;;;;;;;;;;;;;24.00;70.38;99661.56;5370230;32;35731;-82
2022/08/21 15:26:53;;;;;;;;;;;;;;;23.59;71.12;99675.81;5381312;32;35185;-65
2022/08/21 15:29:55;;;;;;;;;;;;;;;23.99;71.92;99670.63;5363388;32;34766;-83
2022/08/21 15:32:57;;;;;;;;;;;;;;;24.05;70.69;99661.91;5366951;32;34174;-82
2022/08/21 15:35:59;;;;;;;;;;;;;;;23.89;71.02;99667.22;5373044;32;35009;-73
2022/08/21 15:39:01;;;;;;;;;;;;;;;24.02;70.21;99666.75;5361185;32;34874;-83
2022/08/21 15:42:03;;;;;;;;;;;;;;;24.16;69.43;99674.19;5380822;32;34627;-73
2022/08/21 15:45:12;;;;;;;;;;;;;;;24.35;69.75;99665.03;5365263;32;35787;-82
2022/08/21 15:48:14;;;;;;;;;;;;;;;23.96;69.10;99664.75;5379798;32;43748;-82
2022/08/21 15:51:16;;;;;;;;;;;;;;;24.23;68.85;99659.09;5368664;32;35167;-82
2022/08/21 15:54:18;;;;;;;;;;;;;;;23.22;73.06;99666.22;5353306;32;35820;-65
2022/08/21 15:57:21;;;;;;;;;;;;;;;23.35;73.35;99665.78;5356220;32;35032;-83
2022/08/21 16:00:24;;;;;;;;;;;;;;;23.54;72.43;99665.56;5350755;32;35540;-82
2022/08/21 16:03:26;;;;;;;;;;;;;;;23.94;70.60;99664.06;5370366;32;34967;-83